Lokaal brand risico:
CBI


Regionaal brand risico: Meer informatie


Weerstation
Sluispark-LeuvenLeuven-Sluispark



Het weer levert geen direct gevaar op.    Er zijn geen waarschuwingen afgegeven.

Nabijgelegen vliegvelden - METAR rapporten

   
EBBR - Wilsele bij Leuven
Gewijzigd: 22-08-2019 12:20
Helder    Wind: WZW 7.4 km/h
Helder
Wind: Wind: WZW 7.4 km/h
Temperatuur: 22°C
Dauwpunt: 8°C
Vochtigheid: 41%
Barometer: 1026 hPa
Zicht: meer dan 10 km
Bewolking: Helder
EBBR 221020Z 25004KT 200V290 CAVOK 22/08 Q1026 NOSIG
EBAW - Antwerp
Gewijzigd: 22-08-2019 12:50
Helder    Wind: ZW 13 km/h
Helder
Wind: Wind: ZW 13 km/h
Temperatuur: 23°C
Dauwpunt: 10°C
Vochtigheid: 44%
Barometer: 1026 hPa
Zicht: meer dan 10 km
Bewolking: Helder
EBAW 221050Z 22007KT 180V270 CAVOK 23/10 Q1026 NOSIG
EBLG - Li├Ęge
Gewijzigd: 22-08-2019 12:50
Licht bewolkt    Wind: varieert 7.4 km/h
Licht bewolkt
Wind: Wind: varieert 7.4 km/h
Temperatuur: 23°C
Dauwpunt: 9°C
Vochtigheid: 41%
Barometer: 1026 hPa
Bewolking: Licht bewolkt
Zicht: meer dan 10 km
Bewolking: Licht bewolkt 1463 m
EBLG 221050Z VRB04KT 9999 FEW048 23/09 Q1026 NOSIG
EBCV - Mons/Bergen
Gewijzigd: 22-08-2019 12:55
Helder    Wind: Westen 9.3 km/h
Helder
Wind: Wind: Westen 9.3 km/h
Temperatuur: 23°C
Dauwpunt: 10°C
Vochtigheid: 44%
Barometer: 1026 hPa
Bewolking: Helder
Zicht: meer dan 10 km
Bewolking: Helder
EBCV 221055Z AUTO 26005KT 9999 NCD 23/10 Q1026 BLU
EHBK - Maastricht
Gewijzigd: 22-08-2019 12:55
Gedeeltelijk bewolkt    Wind: Westen 13 km/h
Gedeeltelijk bewolkt
Wind: Wind: Westen 13 km/h
Temperatuur: 24°C
Dauwpunt: 11°C
Vochtigheid: 44%
Barometer: 1025 hPa
Bewolking: Gedeeltelijk bewolkt
Zicht: meer dan 10 km
Bewolking: Gedeeltelijk bewolkt
EHBK 221055Z AUTO 26007KT 200V310 9999 NSC 24/11 Q1025 NOSIG
ELLX - Luxemburg
Gewijzigd: 22-08-2019 12:50
Helder    Wind: varieert 13 km/h
Helder
Wind: Wind: varieert 13 km/h
Temperatuur: 22°C
Dauwpunt: 10°C
Vochtigheid: 47%
Barometer: 1026 hPa
Zicht: meer dan 10 km
Bewolking: Helder
ELLX 221050Z VRB07KT CAVOK 22/10 Q1026 NOSIG
EBOS - Oostende
Gewijzigd: 22-08-2019 12:50
Licht bewolkt    Wind: WNW 16.7 km/h
Licht bewolkt
Wind: Wind: WNW 16.7 km/h
Temperatuur: 19°C
Dauwpunt: 11°C
Vochtigheid: 60%
Barometer: 1027 hPa
Bewolking: Licht bewolkt
Zicht: meer dan 10 km
Bewolking: Licht bewolkt 762 m
EBOS 221050Z 29009KT 9999 FEW025 19/11 Q1027 NOSIG
  

Script ontwikkeld door  Saratoga-weather.org Aangepast voor de template door  Weerstation Leuven

U vindt ons ook hier:

UK Metoffice

WeatherCloud

European Weather Network

Weather Underground

Benelux Weather Network

AWEKAS

WeatherlinkIP

Het Weer Aktueel

Apparatuur in gebruik:

Weer-station
Davis VP2 weatherstation

Weer-programma
Meteobridge

Weer-computer
D-Link DIR-505

Webleverancier
Robohost

Davis VP2 weatherstation

Meteobridge

D-Link DIR-505

Robohost